Time;durP1;ratioP1;P1;durP2;ratioP2;P2;SDS_P1;SDS_P2;PMS_P1;PMS_P2;Temp;Humidity;BMP_temperature;BMP_pressure;BME280_temperature;BME280_humidity;BME280_pressure;Samples;Min_cycle;Max_cycle;Signal;HPM_P1;HPM_P2
2024/02/28 00:01:56;;;;;;;41.70;19.45;;;23.20;41.40;;;;;;10355558;28;20136;-52
2024/02/28 00:06:59;;;;;;;37.85;18.30;;;23.30;41.40;;;;;;10357348;28;20401;-53
2024/02/28 00:12:01;;;;;;;35.55;17.85;;;23.30;41.00;;;;;;10357402;28;20048;-56
2024/02/28 00:17:03;;;;;;;35.10;16.73;;;23.20;41.30;;;;;;10350687;28;20038;-51
2024/02/28 00:22:05;;;;;;;35.03;17.75;;;23.10;41.30;;;;;;10355936;28;20137;-51
2024/02/28 00:27:07;;;;;;;37.15;17.60;;;23.20;41.20;;;;;;10351671;28;20041;-54
2024/02/28 00:32:09;;;;;;;30.95;16.52;;;23.10;41.30;;;;;;10359875;28;20042;-55
2024/02/28 00:37:12;;;;;;;32.53;16.73;;;23.00;41.30;;;;;;10361333;28;20121;-54
2024/02/28 00:42:13;;;;;;;35.35;16.67;;;23.00;41.30;;;;;;10358196;28;20046;-53
2024/02/28 00:47:15;;;;;;;31.67;15.65;;;23.10;41.20;;;;;;10354316;28;20042;-56
2024/02/28 00:52:19;;;;;;;29.33;15.13;;;22.90;41.20;;;;;;10348620;28;20447;-53
2024/02/28 00:57:21;;;;;;;34.42;14.88;;;22.80;41.30;;;;;;10359605;28;20042;-53
2024/02/28 01:02:22;;;;;;;29.40;14.73;;;22.70;41.40;;;;;;10367624;28;20144;-54
2024/02/28 01:07:25;;;;;;;27.73;14.77;;;22.70;41.40;;;;;;10364178;28;20046;-59
2024/02/28 01:12:27;;;;;;;29.50;14.65;;;22.80;41.30;;;;;;10361426;28;20133;-55
2024/02/28 01:17:28;;;;;;;28.48;13.80;;;22.70;41.40;;;;;;10355296;28;20049;-52
2024/02/28 01:22:31;;;;;;;26.40;13.48;;;22.70;41.40;;;;;;10356056;28;20501;-52
2024/02/28 01:27:33;;;;;;;26.80;13.20;;;22.60;41.40;;;;;;10356254;28;20042;-56
2024/02/28 01:32:35;;;;;;;27.75;13.15;;;22.60;41.40;;;;;;10354977;28;20136;-56
2024/02/28 01:37:38;;;;;;;26.73;13.48;;;22.50;41.40;;;;;;10359503;28;20129;-54
2024/02/28 01:42:39;;;;;;;24.40;13.02;;;22.50;41.40;;;;;;10358412;28;20217;-56
2024/02/28 01:47:41;;;;;;;23.88;12.60;;;22.40;41.40;;;;;;10366130;28;20492;-51
2024/02/28 01:52:44;;;;;;;25.23;13.43;;;22.30;42.30;;;;;;10362299;28;20157;-57
2024/02/28 01:57:45;;;;;;;24.20;13.23;;;22.00;43.20;;;;;;10359854;28;20042;-58
2024/02/28 02:02:47;;;;;;;20.40;12.02;;;21.90;42.90;;;;;;10363032;28;20046;-56
2024/02/28 02:07:50;;;;;;;21.42;11.95;;;22.10;42.70;;;;;;10363472;28;20044;-57
2024/02/28 02:12:52;;;;;;;22.45;11.93;;;22.40;41.60;;;;;;10318739;28;20125;-55
2024/02/28 02:17:54;;;;;;;21.98;11.85;;;22.20;41.60;;;;;;10353583;28;20053;-56
2024/02/28 02:22:56;;;;;;;19.75;11.38;;;22.00;42.40;;;;;;10321343;28;20055;-56
2024/02/28 02:27:59;;;;;;;20.48;11.43;;;22.00;42.70;;;;;;10357422;28;20042;-57
2024/02/28 02:33:00;;;;;;;20.25;11.45;;;22.10;42.40;;;;;;10354870;28;20061;-57
2024/02/28 02:38:04;;;;;;;18.73;10.60;;;22.30;41.60;;;;;;10363248;28;20044;-58
2024/02/28 02:43:05;;;;;;;19.20;10.98;;;22.10;42.10;;;;;;10363224;28;20056;-58
2024/02/28 02:48:07;;;;;;;17.13;10.07;;;21.90;42.60;;;;;;10352146;28;20128;-54
2024/02/28 02:53:10;;;;;;;16.70;10.27;;;22.00;42.40;;;;;;10362212;28;20148;-53
2024/02/28 02:58:12;;;;;;;16.83;10.20;;;22.20;42.30;;;;;;10357163;28;20066;-52
2024/02/28 03:03:14;;;;;;;17.10;10.05;;;22.30;41.80;;;;;;10361442;28;20046;-52
2024/02/28 03:08:17;;;;;;;16.27;9.32;;;22.20;42.00;;;;;;10363412;28;20050;-53
2024/02/28 03:13:19;;;;;;;17.95;9.98;;;22.10;42.10;;;;;;10360209;28;20133;-51
2024/02/28 03:18:21;;;;;;;15.80;9.82;;;22.10;42.20;;;;;;10356280;28;20065;-52
2024/02/28 03:23:24;;;;;;;15.60;9.38;;;22.10;42.00;;;;;;10353236;28;20137;-53
2024/02/28 03:28:25;;;;;;;17.35;9.35;;;22.30;41.80;;;;;;10351275;28;20137;-53
2024/02/28 03:33:27;;;;;;;13.68;8.25;;;22.30;41.60;;;;;;10353860;28;20058;-52
2024/02/28 03:38:30;;;;;;;13.07;8.65;;;22.20;41.90;;;;;;10352444;28;20095;-54
2024/02/28 03:43:31;;;;;;;14.18;8.27;;;22.20;41.80;;;;;;10357983;28;20137;-54
2024/02/28 03:48:33;;;;;;;13.63;8.27;;;22.20;42.00;;;;;;10359343;28;20046;-54
2024/02/28 03:53:36;;;;;;;15.43;8.57;;;22.00;42.50;;;;;;10354532;28;20615;-56
2024/02/28 03:58:38;;;;;;;13.70;8.23;;;22.40;41.60;;;;;;10355056;28;20136;-58
2024/02/28 04:03:42;;;;;;;12.82;7.88;;;22.40;41.50;;;;;;10355490;28;20058;-57
2024/02/28 04:08:45;;;;;;;11.60;7.65;;;22.20;41.90;;;;;;10350473;28;20052;-58
2024/02/28 04:13:47;;;;;;;11.82;7.55;;;22.40;42.10;;;;;;10358267;28;20049;-56
2024/02/28 04:18:48;;;;;;;11.30;7.32;;;22.50;42.00;;;;;;10356745;28;20518;-58
2024/02/28 04:23:51;;;;;;;13.40;7.22;;;22.50;41.90;;;;;;10360342;28;20427;-57
2024/02/28 04:28:53;;;;;;;17.75;7.60;;;22.50;42.10;;;;;;10354177;28;20518;-57
2024/02/28 04:33:55;;;;;;;14.45;7.97;;;22.50;42.30;;;;;;10361918;28;20492;-58
2024/02/28 04:38:58;;;;;;;10.85;7.00;;;22.50;42.40;;;;;;10358052;28;20508;-56
2024/02/28 04:43:59;;;;;;;15.88;7.47;;;22.60;42.10;;;;;;10362359;28;20097;-56
2024/02/28 04:49:01;;;;;;;20.65;8.45;;;22.70;41.60;;;;;;10365161;28;20041;-57
2024/02/28 04:54:04;;;;;;;44.40;9.25;;;22.70;42.10;;;;;;10366462;28;20046;-56
2024/02/28 04:59:05;;;;;;;27.40;10.00;;;22.70;42.90;;;;;;10365213;28;20042;-55
2024/02/28 05:04:07;;;;;;;19.17;9.50;;;22.60;43.40;;;;;;10362714;28;20045;-58
2024/02/28 05:09:10;;;;;;;19.98;8.73;;;22.60;43.40;;;;;;10360736;28;20046;-58
2024/02/28 05:14:12;;;;;;;22.45;8.73;;;22.40;43.50;;;;;;10356362;28;20138;-55
2024/02/28 05:19:14;;;;;;;19.20;8.57;;;22.40;43.50;;;;;;10362201;28;20046;-55
2024/02/28 05:24:17;;;;;;;17.08;8.20;;;22.60;43.20;;;;;;10360488;28;20427;-57
2024/02/28 05:29:18;;;;;;;18.90;8.10;;;22.60;43.10;;;;;;10358595;28;20393;-57
2024/02/28 05:34:20;;;;;;;14.00;7.35;;;22.60;43.40;;;;;;10361077;28;20381;-54
2024/02/28 05:39:23;;;;;;;17.02;7.70;;;22.60;43.70;;;;;;10359650;28;20073;-54
2024/02/28 05:44:25;;;;;;;13.63;7.85;;;22.60;44.00;;;;;;10363029;28;20048;-52
2024/02/28 05:49:26;;;;;;;9.93;6.47;;;22.70;44.00;;;;;;10355108;28;20054;-53
2024/02/28 05:54:29;;;;;;;14.05;6.50;;;22.90;43.80;;;;;;10350523;28;20152;-55
2024/02/28 05:59:31;;;;;;;10.25;6.65;;;22.90;43.60;;;;;;10347330;28;20132;-50
2024/02/28 06:04:33;;;;;;;10.70;5.88;;;22.90;43.80;;;;;;10359704;28;20141;-52
2024/02/28 06:09:36;;;;;;;12.80;6.03;;;23.10;43.30;;;;;;10354555;28;20483;-55
2024/02/28 06:14:37;;;;;;;10.55;7.05;;;23.10;43.00;;;;;;10359180;28;20058;-51
2024/02/28 06:19:39;;;;;;;8.15;5.70;;;23.00;43.20;;;;;;10353848;28;20128;-49
2024/02/28 06:24:42;;;;;;;10.52;5.95;;;22.80;43.40;;;;;;10355099;28;20125;-50
2024/02/28 06:29:43;;;;;;;10.30;5.75;;;22.80;43.70;;;;;;10360671;28;20050;-52
2024/02/28 06:34:45;;;;;;;11.48;5.50;;;22.80;43.60;;;;;;10358363;28;20057;-50
2024/02/28 06:39:48;;;;;;;13.13;6.22;;;22.70;43.60;;;;;;10360251;28;20056;-52
2024/02/28 06:44:50;;;;;;;17.33;5.97;;;22.80;44.50;;;;;;10355695;28;20143;-52
2024/02/28 06:49:52;;;;;;;18.52;5.70;;;22.80;45.50;;;;;;10361275;28;20042;-48
2024/02/28 06:54:54;;;;;;;23.23;6.63;;;22.90;46.00;;;;;;10354887;28;20049;-48
2024/02/28 06:59:56;;;;;;;18.30;7.45;;;22.90;45.40;;;;;;10357864;28;20042;-48
2024/02/28 07:04:58;;;;;;;16.67;7.43;;;22.80;45.10;;;;;;10352836;28;20132;-50
2024/02/28 07:10:03;;;;;;;16.55;6.97;;;22.60;45.50;;;;;;10351288;28;20403;-53
2024/02/28 07:15:05;;;;;;;18.27;7.00;;;22.40;45.50;;;;;;10354536;28;20128;-51
2024/02/28 07:20:08;;;;;;;14.80;6.50;;;22.40;45.30;;;;;;10350750;28;20096;-53
2024/02/28 07:25:11;;;;;;;25.63;6.18;;;22.30;46.00;;;;;;10352125;28;20073;-51
2024/02/28 07:30:13;;;;;;;13.13;5.90;;;22.20;45.40;;;;;;10354732;28;20042;-50
2024/02/28 07:35:17;;;;;;;11.38;5.45;;;22.20;45.10;;;;;;10353103;28;20054;-54
2024/02/28 07:40:20;;;;;;;11.68;5.72;;;22.30;44.80;;;;;;10358684;28;20045;-54
2024/02/28 07:45:21;;;;;;;13.82;5.53;;;22.20;44.80;;;;;;10353892;28;20530;-48
2024/02/28 07:50:23;;;;;;;9.02;5.72;;;22.30;44.20;;;;;;10357235;28;20469;-52
2024/02/28 07:55:26;;;;;;;11.15;5.72;;;22.20;44.40;;;;;;10361452;28;20129;-48
2024/02/28 08:00:28;;;;;;;9.77;5.78;;;21.90;45.30;;;;;;10357896;28;20050;-54
2024/02/28 08:05:30;;;;;;;11.60;5.57;;;21.80;44.90;;;;;;10356543;28;20459;-55
2024/02/28 08:10:33;;;;;;;10.15;5.47;;;21.80;44.90;;;;;;10351326;28;20161;-49
2024/02/28 08:15:34;;;;;;;9.50;5.18;;;21.80;44.90;;;;;;10352675;28;20141;-52
2024/02/28 08:20:36;;;;;;;7.07;5.40;;;21.80;44.80;;;;;;10351478;28;20058;-48
2024/02/28 08:25:39;;;;;;;10.10;5.78;;;21.90;44.20;;;;;;10356878;28;20046;-50
2024/02/28 08:30:41;;;;;;;7.32;5.63;;;21.90;43.90;;;;;;10354251;28;20057;-52
2024/02/28 08:35:43;;;;;;;6.82;5.07;;;21.80;44.00;;;;;;10347430;28;20653;-49
2024/02/28 08:40:46;;;;;;;5.97;4.97;;;21.90;44.30;;;;;;10349567;28;20053;-48
2024/02/28 08:45:50;;;;;;;7.05;5.53;;;21.80;44.10;;;;;;10354576;28;20050;-51
2024/02/28 08:50:51;;;;;;;6.80;5.10;;;21.80;43.50;;;;;;10353925;28;20493;-49
2024/02/28 08:55:54;;;;;;;6.13;4.82;;;21.90;43.50;;;;;;10353981;28;20051;-48
2024/02/28 09:00:56;;;;;;;8.95;5.63;;;22.00;43.30;;;;;;10355922;28;20046;-53
2024/02/28 09:05:57;;;;;;;8.45;5.55;;;21.90;43.10;;;;;;10353626;28;20121;-49
2024/02/28 09:11:01;;;;;;;7.15;5.35;;;21.90;43.00;;;;;;10356209;28;20128;-49
2024/02/28 09:16:03;;;;;;;5.90;5.30;;;22.00;42.80;;;;;;10352531;28;20052;-53
2024/02/28 09:21:05;;;;;;;6.30;5.10;;;22.10;42.20;;;;;;10356910;28;20042;-54
2024/02/28 09:26:08;;;;;;;5.18;4.68;;;22.10;42.40;;;;;;10361039;28;20048;-56
2024/02/28 09:31:10;;;;;;;5.68;4.63;;;22.00;42.40;;;;;;10365523;28;20525;-50
2024/02/28 09:36:12;;;;;;;4.93;4.30;;;22.00;42.40;;;;;;10363805;28;20130;-49
2024/02/28 09:41:17;;;;;;;5.40;4.60;;;21.90;42.50;;;;;;10360333;28;20041;-48
2024/02/28 09:46:18;;;;;;;5.32;4.38;;;22.00;42.20;;;;;;10354140;28;20078;-55
2024/02/28 09:51:21;;;;;;;5.25;4.60;;;21.90;42.40;;;;;;10355612;28;20495;-49
2024/02/28 09:56:23;;;;;;;6.60;4.63;;;22.00;41.80;;;;;;10347406;28;20038;-49
2024/02/28 10:01:25;;;;;;;5.38;4.13;;;21.90;42.00;;;;;;10350025;28;20045;-52
2024/02/28 10:06:27;;;;;;;4.55;4.15;;;22.00;41.80;;;;;;10360080;28;20046;-50
2024/02/28 10:11:30;;;;;;;5.60;4.22;;;22.20;41.60;;;;;;10363302;28;20056;-53
2024/02/28 10:16:31;;;;;;;4.63;3.78;;;22.20;41.40;;;;;;10361378;28;20052;-52
2024/02/28 10:21:33;;;;;;;4.18;3.53;;;22.40;41.30;;;;;;10360549;28;20427;-55
2024/02/28 10:26:44;;;;;;;3.85;3.42;;;22.50;41.30;;;;;;10354187;28;20416;-54
2024/02/28 10:31:45;;;;;;;3.38;3.08;;;22.50;41.30;;;;;;10353793;28;20053;-57
2024/02/28 10:36:47;;;;;;;4.70;2.90;;;22.40;41.50;;;;;;10357585;28;20077;-55
2024/02/28 10:41:50;;;;;;;4.75;3.80;;;22.50;41.40;;;;;;10359530;28;20053;-56
2024/02/28 10:46:52;;;;;;;4.00;3.60;;;22.30;41.20;;;;;;10359892;28;20050;-52
2024/02/28 10:51:53;;;;;;;5.63;4.00;;;22.40;41.20;;;;;;10358169;28;20530;-55
2024/02/28 10:56:56;;;;;;;4.90;3.80;;;22.30;41.30;;;;;;10358492;28;20078;-54
2024/02/28 11:01:58;;;;;;;6.15;3.75;;;22.40;41.30;;;;;;10351366;28;20057;-55
2024/02/28 11:07:01;;;;;;;4.15;3.38;;;22.30;41.30;;;;;;10350932;28;20492;-54
2024/02/28 11:12:05;;;;;;;3.72;3.40;;;22.20;41.40;;;;;;10348901;28;20153;-57
2024/02/28 11:17:06;;;;;;;4.03;3.20;;;22.20;41.50;;;;;;10353267;28;20137;-55
2024/02/28 11:22:08;;;;;;;3.58;2.92;;;22.00;41.70;;;;;;10358419;28;20144;-49
2024/02/28 11:27:13;;;;;;;4.30;2.85;;;22.00;41.90;;;;;;10362712;28;20552;-47
2024/02/28 11:32:15;;;;;;;4.28;3.25;;;22.00;41.80;;;;;;10353082;28;20063;-52
2024/02/28 11:37:17;;;;;;;3.45;3.15;;;21.90;41.80;;;;;;10348919;28;20050;-54
2024/02/28 11:42:20;;;;;;;3.38;2.88;;;21.90;41.80;;;;;;10350707;28;20057;-48
2024/02/28 11:47:21;;;;;;;3.40;3.03;;;21.90;41.90;;;;;;10352949;28;20128;-56
2024/02/28 11:52:23;;;;;;;3.92;3.40;;;21.90;42.00;;;;;;10355632;28;20046;-51
2024/02/28 11:57:26;;;;;;;4.82;3.60;;;21.80;41.80;;;;;;10352750;28;20042;-51
2024/02/28 12:02:30;;;;;;;4.03;3.45;;;21.90;41.40;;;;;;10356975;28;20144;-49
2024/02/28 12:07:31;;;;;;;3.70;2.80;;;21.70;41.90;;;;;;10351950;28;20128;-54
2024/02/28 12:12:34;;;;;;;4.00;2.88;;;21.70;42.10;;;;;;10350687;28;20052;-50
2024/02/28 12:17:37;;;;;;;4.00;3.05;;;21.80;42.00;;;;;;10348665;28;20045;-52
2024/02/28 12:22:38;;;;;;;3.90;3.40;;;21.80;41.90;;;;;;10353186;28;20050;-50
2024/02/28 12:27:41;;;;;;;4.00;3.03;;;21.70;41.70;;;;;;10355659;28;20504;-51
2024/02/28 12:32:43;;;;;;;3.55;3.10;;;21.50;42.30;;;;;;10355287;28;20460;-52
2024/02/28 12:37:45;;;;;;;4.07;3.00;;;21.50;42.50;;;;;;10355876;28;20139;-51
2024/02/28 12:42:47;;;;;;;5.18;3.30;;;21.50;42.10;;;;;;10354625;28;20052;-56
2024/02/28 12:47:49;;;;;;;3.28;2.70;;;21.50;42.50;;;;;;10352247;28;20042;-54
2024/02/28 12:52:53;;;;;;;3.90;3.45;;;21.50;42.50;;;;;;10363164;28;20508;-53
2024/02/28 12:57:56;;;;;;;4.97;3.40;;;21.40;42.20;;;;;;10361220;28;20397;-54
2024/02/28 13:02:58;;;;;;;4.13;3.60;;;21.50;41.90;;;;;;10357356;28;20063;-53
2024/02/28 13:07:59;;;;;;;4.10;3.05;;;21.60;41.60;;;;;;10352394;28;20491;-54
2024/02/28 13:13:03;;;;;;;2.55;2.35;;;21.60;41.70;;;;;;10357411;28;20054;-51
2024/02/28 13:18:07;;;;;;;3.25;2.80;;;21.80;41.70;;;;;;10361656;28;20092;-51
2024/02/28 13:23:11;;;;;;;2.78;2.40;;;22.00;41.20;;;;;;10357155;28;20092;-49
2024/02/28 13:28:14;;;;;;;3.20;2.40;;;22.10;41.00;;;;;;10354894;28;20174;-51
2024/02/28 13:33:15;;;;;;;3.65;2.72;;;22.20;40.80;;;;;;10358205;28;20127;-50
2024/02/28 13:38:17;;;;;;;4.85;2.83;;;22.20;40.50;;;;;;10357666;28;20125;-55
2024/02/28 13:43:20;;;;;;;3.15;2.70;;;22.20;40.50;;;;;;10364067;28;20561;-58
2024/02/28 13:48:24;;;;;;;2.58;2.38;;;22.20;40.60;;;;;;10359767;28;20042;-58
2024/02/28 13:53:25;;;;;;;2.80;2.55;;;22.20;40.70;;;;;;10357752;28;20046;-57
2024/02/28 13:58:28;;;;;;;4.88;2.97;;;22.40;40.30;;;;;;10359496;28;20408;-49
2024/02/28 14:03:30;;;;;;;3.40;2.57;;;22.50;40.30;;;;;;10360643;28;20495;-54
2024/02/28 14:08:32;;;;;;;3.22;2.38;;;22.50;40.00;;;;;;10359985;28;20054;-56
2024/02/28 14:13:35;;;;;;;4.05;2.95;;;22.50;40.20;;;;;;10350045;28;20046;-55
2024/02/28 14:18:37;;;;;;;3.33;2.80;;;22.50;40.10;;;;;;10348620;28;20064;-50
2024/02/28 14:23:39;;;;;;;3.22;2.55;;;22.40;40.20;;;;;;10350096;28;20050;-48
2024/02/28 14:28:42;;;;;;;3.70;2.90;;;22.30;40.50;;;;;;10347902;28;20052;-54
2024/02/28 14:33:45;;;;;;;3.40;2.35;;;22.30;40.30;;;;;;10354867;28;20049;-50
2024/02/28 14:38:47;;;;;;;2.90;2.40;;;22.60;40.10;;;;;;10357418;28;20071;-50
2024/02/28 14:43:50;;;;;;;1.98;1.77;;;22.70;40.10;;;;;;10355687;28;20053;-49
2024/02/28 14:48:52;;;;;;;2.50;2.05;;;22.60;40.10;;;;;;10355639;28;20068;-55
2024/02/28 14:53:53;;;;;;;3.25;2.55;;;22.60;40.30;;;;;;10352288;28;20546;-51
2024/02/28 14:58:56;;;;;;;2.20;2.00;;;22.70;40.10;;;;;;10349805;28;20126;-49
2024/02/28 15:03:58;;;;;;;3.35;2.47;;;22.60;40.30;;;;;;10350677;28;20138;-49
2024/02/28 15:09:00;;;;;;;2.05;1.85;;;22.60;40.20;;;;;;10353420;28;20048;-49
2024/02/28 15:14:03;;;;;;;2.83;2.10;;;22.70;40.50;;;;;;10355099;28;20116;-53
2024/02/28 15:19:05;;;;;;;1.75;1.65;;;22.70;40.60;;;;;;10356363;28;20412;-53
2024/02/28 15:24:07;;;;;;;2.22;1.58;;;22.70;40.70;;;;;;10353131;28;20042;-49
2024/02/28 15:29:10;;;;;;;2.33;1.50;;;22.70;40.60;;;;;;10354101;28;20172;-51
2024/02/28 15:34:12;;;;;;;2.10;1.45;;;22.70;41.10;;;;;;10349410;28;20073;-54
2024/02/28 15:39:14;;;;;;;4.93;2.28;;;23.00;40.70;;;;;;10347049;28;20508;-49
2024/02/28 15:44:19;;;;;;;10.02;4.40;;;23.00;41.20;;;;;;10353349;28;20045;-49
2024/02/28 15:49:21;;;;;;;11.98;5.10;;;23.00;42.10;;;;;;10352296;28;20503;-55
2024/02/28 15:54:23;;;;;;;10.02;4.28;;;23.20;42.80;;;;;;10351690;28;20076;-51
2024/02/28 15:59:26;;;;;;;9.35;3.83;;;23.20;42.90;;;;;;10347483;28;20137;-47
2024/02/28 16:04:28;;;;;;;11.38;4.03;;;23.10;43.00;;;;;;10355425;28;20105;-51
2024/02/28 16:09:30;;;;;;;8.48;3.30;;;23.10;43.40;;;;;;10354575;28;20053;-51
2024/02/28 16:14:33;;;;;;;6.18;3.17;;;23.10;43.90;;;;;;10355315;28;20141;-57
2024/02/28 16:19:34;;;;;;;5.38;3.20;;;23.10;44.60;;;;;;10359675;28;20056;-49
2024/02/28 16:24:37;;;;;;;5.13;2.97;;;23.10;44.80;;;;;;10356957;28;21889;-50
2024/02/28 16:29:40;;;;;;;4.55;2.90;;;23.20;45.00;;;;;;10359456;28;20463;-53
2024/02/28 16:34:42;;;;;;;5.60;2.72;;;23.20;45.60;;;;;;10364651;28;21447;-50
2024/02/28 16:39:43;;;;;;;5.57;2.88;;;23.20;45.00;;;;;;10358185;28;20424;-49
2024/02/28 16:44:46;;;;;;;4.00;2.60;;;23.20;45.60;;;;;;10357688;28;20074;-49
2024/02/28 16:49:48;;;;;;;9.65;2.60;;;23.30;45.80;;;;;;10354501;28;20408;-50
2024/02/28 16:54:50;;;;;;;4.85;2.95;;;23.30;45.90;;;;;;10359094;28;20121;-50
2024/02/28 16:59:53;;;;;;;6.05;3.05;;;23.20;46.70;;;;;;10361767;28;20065;-53
2024/02/28 17:04:54;;;;;;;33.58;11.57;;;23.60;46.30;;;;;;10362723;28;20042;-50
2024/02/28 17:09:56;;;;;;;37.50;12.40;;;23.60;47.30;;;;;;10360426;28;20052;-51
2024/02/28 17:14:59;;;;;;;29.38;11.48;;;23.60;48.40;;;;;;10360176;28;20132;-47
2024/02/28 17:20:02;;;;;;;30.00;10.57;;;23.80;48.10;;;;;;10363810;28;20057;-50
2024/02/28 17:25:04;;;;;;;20.05;9.20;;;24.00;47.90;;;;;;10357726;28;20038;-50
2024/02/28 17:30:08;;;;;;;19.05;8.65;;;24.10;47.60;;;;;;10360284;28;20046;-53
2024/02/28 17:35:10;;;;;;;17.17;8.07;;;24.10;46.90;;;;;;10364178;28;20203;-50
2024/02/28 17:40:13;;;;;;;16.75;8.50;;;24.10;46.90;;;;;;10353247;28;20043;-51
2024/02/28 17:45:16;;;;;;;16.77;7.30;;;24.00;46.80;;;;;;10358025;28;20125;-52
2024/02/28 17:50:18;;;;;;;12.75;6.82;;;24.10;46.70;;;;;;10352526;28;20069;-49
2024/02/28 17:55:20;;;;;;;12.68;5.95;;;24.30;45.70;;;;;;10357022;28;20128;-54
2024/02/28 18:00:25;;;;;;;11.82;5.65;;;24.40;45.40;;;;;;10357564;28;21003;-49
2024/02/28 18:05:26;;;;;;;11.02;5.93;;;24.30;45.70;;;;;;10356757;28;20045;-49
2024/02/28 18:10:28;;;;;;;9.40;5.15;;;24.20;45.60;;;;;;10356150;28;20073;-49
2024/02/28 18:15:31;;;;;;;8.00;4.80;;;24.10;45.60;;;;;;10356614;28;20137;-48
2024/02/28 18:20:33;;;;;;;8.32;4.43;;;24.00;46.00;;;;;;10357065;28;20141;-53
2024/02/28 18:25:34;;;;;;;10.98;4.22;;;24.00;46.00;;;;;;10353556;28;20137;-48
2024/02/28 18:30:37;;;;;;;10.65;4.45;;;24.00;46.50;;;;;;10360208;28;20089;-49
2024/02/28 18:35:39;;;;;;;8.05;3.92;;;24.00;46.80;;;;;;10356325;28;20060;-49
2024/02/28 18:40:40;;;;;;;9.48;4.13;;;24.10;46.60;;;;;;10360030;28;20128;-49
2024/02/28 18:45:43;;;;;;;5.55;3.00;;;24.20;46.60;;;;;;10361962;28;20149;-53
2024/02/28 18:50:45;;;;;;;6.18;3.75;;;24.20;46.50;;;;;;10355910;28;20050;-49
2024/02/28 18:55:47;;;;;;;8.45;3.85;;;24.20;46.50;;;;;;10357370;28;20042;-54
2024/02/28 19:00:50;;;;;;;6.80;3.78;;;24.20;46.60;;;;;;10353132;28;20480;-49
2024/02/28 19:05:51;;;;;;;7.05;3.67;;;24.30;46.50;;;;;;10354124;28;20054;-50
2024/02/28 19:10:53;;;;;;;7.88;3.72;;;24.30;46.50;;;;;;10356646;28;20510;-53
2024/02/28 19:15:59;;;;;;;5.68;3.35;;;24.80;45.10;;;;;;10355806;28;20069;-50
2024/02/28 19:21:00;;;;;;;7.28;3.38;;;25.10;44.50;;;;;;10358179;28;20064;-53
2024/02/28 19:26:02;;;;;;;5.63;3.15;;;24.50;45.40;;;;;;10358828;28;20140;-56
2024/02/28 19:31:05;;;;;;;6.15;3.30;;;24.60;45.30;;;;;;10348661;28;20129;-50
2024/02/28 19:36:07;;;;;;;6.63;2.97;;;24.60;45.20;;;;;;10356621;28;20128;-54
2024/02/28 19:41:09;;;;;;;5.40;3.10;;;24.60;45.50;;;;;;10355739;28;20465;-50
2024/02/28 19:46:12;;;;;;;4.35;2.85;;;24.60;45.30;;;;;;10360319;28;20050;-54
2024/02/28 19:51:16;;;;;;;5.88;3.03;;;24.40;45.70;;;;;;10358626;28;20129;-53
2024/02/28 19:56:17;;;;;;;3.53;2.85;;;24.40;45.70;;;;;;10358184;28;20046;-54
2024/02/28 20:01:20;;;;;;;5.40;2.55;;;24.50;45.60;;;;;;10350462;28;20084;-55
2024/02/28 20:06:22;;;;;;;5.35;2.88;;;24.40;45.80;;;;;;10354303;28;20145;-56
2024/02/28 20:11:25;;;;;;;5.05;2.72;;;24.60;45.50;;;;;;10352924;28;20135;-56
2024/02/28 20:16:28;;;;;;;5.00;2.63;;;24.50;45.60;;;;;;10353404;28;20046;-53
2024/02/28 20:21:29;;;;;;;4.05;2.60;;;24.50;45.60;;;;;;10360804;28;20144;-52
2024/02/28 20:26:31;;;;;;;3.95;2.47;;;24.60;45.30;;;;;;10354043;28;20104;-51
2024/02/28 20:31:34;;;;;;;3.90;2.40;;;24.60;45.40;;;;;;10356539;28;20057;-51
2024/02/28 20:36:39;;;;;;;3.80;2.42;;;24.50;45.30;;;;;;10354644;28;20056;-51
2024/02/28 20:41:40;;;;;;;4.65;2.60;;;24.50;45.40;;;;;;10348427;28;20042;-57
2024/02/28 20:46:43;;;;;;;4.10;2.67;;;24.60;45.40;;;;;;10353368;28;20134;-52
2024/02/28 20:51:45;;;;;;;3.28;1.98;;;24.70;46.50;;;;;;10359624;28;20056;-53
2024/02/28 20:56:47;;;;;;;3.78;2.33;;;24.60;45.40;;;;;;10357466;28;20148;-51
2024/02/28 21:01:50;;;;;;;3.70;2.60;;;24.60;45.20;;;;;;10357827;28;20137;-50
2024/02/28 21:06:51;;;;;;;3.63;2.08;;;24.70;45.30;;;;;;10358683;28;20172;-48
2024/02/28 21:12:02;;;;;;;1.80;1.63;;;24.70;45.00;;;;;;10355781;28;20056;-49
2024/02/28 21:17:06;;;;;;;2.75;1.98;;;24.60;45.00;;;;;;10357356;28;20149;-48
2024/02/28 21:22:07;;;;;;;2.55;1.83;;;24.60;44.90;;;;;;10361890;28;20046;-50
2024/02/28 21:27:09;;;;;;;3.30;1.95;;;24.80;44.80;;;;;;10365165;28;20124;-48
2024/02/28 21:32:12;;;;;;;3.67;1.90;;;24.90;44.60;;;;;;10357083;28;20046;-52
2024/02/28 21:37:14;;;;;;;2.92;1.90;;;24.90;44.60;;;;;;10361189;28;20580;-53
2024/02/28 21:42:15;;;;;;;2.15;1.60;;;24.70;44.60;;;;;;10362710;28;20384;-52
2024/02/28 21:47:18;;;;;;;2.33;1.85;;;24.70;44.60;;;;;;10362193;28;20137;-50
2024/02/28 21:52:20;;;;;;;3.17;1.88;;;24.80;44.50;;;;;;10356676;28;20133;-53
2024/02/28 21:57:21;;;;;;;2.78;1.95;;;24.80;44.40;;;;;;10355266;28;20133;-49
2024/02/28 22:02:24;;;;;;;2.30;1.60;;;24.90;44.20;;;;;;10361093;28;20129;-49
2024/02/28 22:07:26;;;;;;;2.20;1.85;;;24.90;44.30;;;;;;10359398;28;20381;-51
2024/02/28 22:12:27;;;;;;;4.10;1.88;;;25.10;43.80;;;;;;10358206;28;20419;-50
2024/02/28 22:17:30;;;;;;;1.92;1.60;;;25.30;43.30;;;;;;10364018;28;20121;-48
2024/02/28 22:22:32;;;;;;;2.70;1.83;;;25.10;43.70;;;;;;10358643;28;20148;-47
2024/02/28 22:27:34;;;;;;;1.83;1.42;;;25.20;43.50;;;;;;10353460;28;20145;-51
2024/02/28 22:32:36;;;;;;;1.88;1.60;;;25.00;43.60;;;;;;10357524;28;20081;-52
2024/02/28 22:37:38;;;;;;;2.20;1.33;;;25.00;43.90;;;;;;10355658;28;20575;-50
2024/02/28 22:42:40;;;;;;;2.53;1.40;;;25.10;43.80;;;;;;10357857;28;20464;-53
2024/02/28 22:47:44;;;;;;;1.95;1.40;;;25.10;43.70;;;;;;10355020;28;20072;-54
2024/02/28 22:52:46;;;;;;;2.65;1.38;;;25.10;43.60;;;;;;10356603;28;20461;-53
2024/02/28 22:57:48;;;;;;;1.98;1.50;;;25.00;43.60;;;;;;10359937;28;20056;-52
2024/02/28 23:02:51;;;;;;;1.63;1.27;;;25.10;43.40;;;;;;10355068;28;20065;-52
2024/02/28 23:07:52;;;;;;;1.55;1.30;;;25.10;43.40;;;;;;10354206;28;20073;-55
2024/02/28 23:12:55;;;;;;;1.70;1.45;;;25.20;43.20;;;;;;10354578;28;20045;-52
2024/02/28 23:17:58;;;;;;;1.95;1.60;;;25.40;42.20;;;;;;10361469;28;20132;-51
2024/02/28 23:23:00;;;;;;;1.55;1.40;;;25.40;42.10;;;;;;10359276;28;20137;-51
2024/02/28 23:28:02;;;;;;;4.78;1.40;;;25.30;42.00;;;;;;10352796;28;20600;-52
2024/02/28 23:33:06;;;;;;;2.85;1.40;;;25.10;42.20;;;;;;10355470;28;20042;-52
2024/02/28 23:38:08;;;;;;;2.67;1.48;;;25.00;42.10;;;;;;10353465;28;20042;-52
2024/02/28 23:43:09;;;;;;;4.70;1.50;;;24.70;42.40;;;;;;10358229;28;20124;-53
2024/02/28 23:48:12;;;;;;;3.13;1.52;;;24.60;42.50;;;;;;10357027;28;20486;-53
2024/02/28 23:53:14;;;;;;;2.55;1.70;;;24.60;42.50;;;;;;10354834;28;20045;-52
2024/02/28 23:58:16;;;;;;;2.47;1.33;;;24.50;42.60;;;;;;10351530;28;20046;-53
